sensor_id;sensor_type;location;lat;lon;timestamp;temperature;humidity
3023;DHT22;1521;53.584;9.938;2023-01-15T13:56:11;6.80;1.00
3023;DHT22;1521;53.584;9.938;2023-01-15T13:59:39;7.00;1.00
3023;DHT22;1521;53.584;9.938;2023-01-15T14:01:36;7.10;1.00
3023;DHT22;1521;53.584;9.938;2023-01-15T14:06:45;7.50;1.00
3023;DHT22;1521;53.584;9.938;2023-01-15T14:09:29;7.50;1.00
3023;DHT22;1521;53.584;9.938;2023-01-15T14:12:12;7.30;1.00
3023;DHT22;1521;53.584;9.938;2023-01-15T14:15:00;7.00;1.00
3023;DHT22;1521;53.584;9.938;2023-01-15T14:23:02;6.90;1.00
3023;DHT22;1521;53.584;9.938;2023-01-15T14:28:33;6.90;1.00
3023;DHT22;1521;53.584;9.938;2023-01-15T14:31:13;7.00;1.00
3023;DHT22;1521;53.584;9.938;2023-01-15T14:36:25;7.00;1.00
3023;DHT22;1521;53.584;9.938;2023-01-15T14:38:59;7.00;1.00
3023;DHT22;1521;53.584;9.938;2023-01-15T14:41:33;7.00;1.00
3023;DHT22;1521;53.584;9.938;2023-01-15T14:44:30;7.00;1.00
3023;DHT22;1521;53.584;9.938;2023-01-15T14:47:03;7.00;1.00
3023;DHT22;1521;53.584;9.938;2023-01-15T14:49:43;7.00;1.00
3023;DHT22;1521;53.584;9.938;2023-01-15T14:52:20;7.10;1.00
3023;DHT22;1521;53.584;9.938;2023-01-15T14:54:47;7.10;1.00
3023;DHT22;1521;53.584;9.938;2023-01-15T14:57:13;7.10;1.00
3023;DHT22;1521;53.584;9.938;2023-01-15T14:59:51;7.10;1.00
3023;DHT22;1521;53.584;9.938;2023-01-15T15:02:36;7.10;1.00
3023;DHT22;1521;53.584;9.938;2023-01-15T15:05:04;7.10;1.00
3023;DHT22;1521;53.584;9.938;2023-01-15T15:07:41;7.10;1.00
3023;DHT22;1521;53.584;9.938;2023-01-15T15:16:03;7.00;1.00
3023;DHT22;1521;53.584;9.938;2023-01-15T15:21:36;6.90;1.00
3023;DHT22;1521;53.584;9.938;2023-01-15T15:26:42;6.70;1.00
3023;DHT22;1521;53.584;9.938;2023-01-15T15:31:55;6.40;1.00
3023;DHT22;1521;53.584;9.938;2023-01-15T15:34:25;6.30;1.00
3023;DHT22;1521;53.584;9.938;2023-01-15T15:36:52;6.20;91.40
3023;DHT22;1521;53.584;9.938;2023-01-15T15:39:26;6.10;99.90
3023;DHT22;1521;53.584;9.938;2023-01-15T15:41:54;5.90;99.90
3023;DHT22;1521;53.584;9.938;2023-01-15T15:44:51;5.80;1.00
3023;DHT22;1521;53.584;9.938;2023-01-15T15:47:43;5.60;82.70
3023;DHT22;1521;53.584;9.938;2023-01-15T15:50:33;5.50;1.00
3023;DHT22;1521;53.584;9.938;2023-01-15T15:53:00;5.30;1.00
3023;DHT22;1521;53.584;9.938;2023-01-15T15:55:42;5.20;99.90
3023;DHT22;1521;53.584;9.938;2023-01-15T15:58:31;5.20;99.90
3023;DHT22;1521;53.584;9.938;2023-01-15T16:00:58;5.20;1.00
3023;DHT22;1521;53.584;9.938;2023-01-15T16:03:26;5.20;99.90
3023;DHT22;1521;53.584;9.938;2023-01-15T16:06:03;5.20;1.00
3023;DHT22;1521;53.584;9.938;2023-01-15T16:08:31;5.20;1.00
3023;DHT22;1521;53.584;9.938;2023-01-15T16:11:00;5.20;1.00
3023;DHT22;1521;53.584;9.938;2023-01-15T16:13:43;5.20;57.60
3023;DHT22;1521;53.584;9.938;2023-01-15T16:16:10;5.20;99.90
3023;DHT22;1521;53.584;9.938;2023-01-15T16:18:39;5.10;1.00
3023;DHT22;1521;53.584;9.938;2023-01-15T16:21:10;5.10;99.90
3023;DHT22;1521;53.584;9.938;2023-01-15T16:23:36;5.10;99.90
3023;DHT22;1521;53.584;9.938;2023-01-15T16:26:15;5.10;55.00
3023;DHT22;1521;53.584;9.938;2023-01-15T16:28:50;5.10;99.90
3023;DHT22;1521;53.584;9.938;2023-01-15T16:31:18;5.10;10.20
3023;DHT22;1521;53.584;9.938;2023-01-15T16:33:44;5.10;1.00
3023;DHT22;1521;53.584;9.938;2023-01-15T16:36:11;5.10;60.40
3023;DHT22;1521;53.584;9.938;2023-01-15T16:38:40;5.00;1.00
3023;DHT22;1521;53.584;9.938;2023-01-15T16:41:06;5.00;1.00
3023;DHT22;1521;53.584;9.938;2023-01-15T16:43:56;5.00;1.00
3023;DHT22;1521;53.584;9.938;2023-01-15T16:46:25;5.00;99.90
3023;DHT22;1521;53.584;9.938;2023-01-15T16:51:48;5.00;1.00
3023;DHT22;1521;53.584;9.938;2023-01-15T16:57:04;5.10;1.00
3023;DHT22;1521;53.584;9.938;2023-01-15T16:59:59;5.10;1.00
3023;DHT22;1521;53.584;9.938;2023-01-15T17:02:43;5.10;99.90
3023;DHT22;1521;53.584;9.938;2023-01-15T17:05:15;5.10;99.90
3023;DHT22;1521;53.584;9.938;2023-01-15T17:07:46;5.00;99.90
3023;DHT22;1521;53.584;9.938;2023-01-15T17:10:21;5.00;99.90
3023;DHT22;1521;53.584;9.938;2023-01-15T17:12:47;5.00;99.90
3023;DHT22;1521;53.584;9.938;2023-01-15T17:17:38;5.00;99.90
3023;DHT22;1521;53.584;9.938;2023-01-15T17:20:07;5.00;99.90
3023;DHT22;1521;53.584;9.938;2023-01-15T17:22:35;5.00;99.90
3023;DHT22;1521;53.584;9.938;2023-01-15T17:25:01;5.00;99.90
3023;DHT22;1521;53.584;9.938;2023-01-15T17:27:44;5.10;98.80
3023;DHT22;1521;53.584;9.938;2023-01-15T17:30:11;5.10;10.20
3023;DHT22;1521;53.584;9.938;2023-01-15T17:32:37;5.10;26.70
